sensor_id;sensor_type;location;lat;lon;timestamp;pressure;altitude;pressure_sealevel;temperature;humidity
6829;BME280;17930;48.592;8.868;2023-04-06T00:01:37;97027.75;;;-1.02;100.00
6829;BME280;17930;48.592;8.868;2023-04-06T00:04:05;97007.06;;;-1.06;100.00
6829;BME280;17930;48.592;8.868;2023-04-06T00:06:33;97017.31;;;-1.00;100.00
6829;BME280;17930;48.592;8.868;2023-04-06T00:09:00;97012.97;;;-1.12;100.00
6829;BME280;17930;48.592;8.868;2023-04-06T00:11:27;97012.16;;;-1.19;100.00
6829;BME280;17930;48.592;8.868;2023-04-06T00:13:53;97012.56;;;-1.09;100.00
6829;BME280;17930;48.592;8.868;2023-04-06T00:16:20;97016.50;;;-1.13;100.00
6829;BME280;17930;48.592;8.868;2023-04-06T00:18:47;97005.06;;;-1.17;100.00
6829;BME280;17930;48.592;8.868;2023-04-06T00:21:14;97001.13;;;-1.20;100.00
6829;BME280;17930;48.592;8.868;2023-04-06T00:23:42;97005.06;;;-1.24;100.00
6829;BME280;17930;48.592;8.868;2023-04-06T00:26:09;97007.81;;;-1.25;100.00
6829;BME280;17930;48.592;8.868;2023-04-06T00:28:36;97006.06;;;-1.18;100.00
6829;BME280;17930;48.592;8.868;2023-04-06T00:31:03;97001.56;;;-1.03;100.00
6829;BME280;17930;48.592;8.868;2023-04-06T00:33:30;97000.75;;;-1.10;100.00
6829;BME280;17930;48.592;8.868;2023-04-06T00:35:57;96999.78;;;-1.09;100.00
6829;BME280;17930;48.592;8.868;2023-04-06T00:38:23;97002.31;;;-1.16;100.00
6829;BME280;17930;48.592;8.868;2023-04-06T00:40:51;96994.78;;;-1.30;100.00
6829;BME280;17930;48.592;8.868;2023-04-06T00:43:18;96996.34;;;-1.42;100.00
6829;BME280;17930;48.592;8.868;2023-04-06T00:45:45;97002.97;;;-1.54;100.00
6829;BME280;17930;48.592;8.868;2023-04-06T00:48:11;97000.16;;;-1.65;100.00
6829;BME280;17930;48.592;8.868;2023-04-06T00:50:38;96995.84;;;-1.65;100.00
6829;BME280;17930;48.592;8.868;2023-04-06T00:53:05;96989.72;;;-1.70;100.00
6829;BME280;17930;48.592;8.868;2023-04-06T00:55:32;96991.06;;;-1.81;100.00
6829;BME280;17930;48.592;8.868;2023-04-06T00:58:02;96994.22;;;-1.79;100.00
6829;BME280;17930;48.592;8.868;2023-04-06T01:00:29;96986.75;;;-1.74;100.00
6829;BME280;17930;48.592;8.868;2023-04-06T01:02:56;96980.19;;;-1.49;100.00
6829;BME280;17930;48.592;8.868;2023-04-06T01:05:22;96983.00;;;-1.31;100.00
6829;BME280;17930;48.592;8.868;2023-04-06T01:07:49;96982.41;;;-1.33;100.00
6829;BME280;17930;48.592;8.868;2023-04-06T01:10:22;96977.50;;;-1.28;100.00
6829;BME280;17930;48.592;8.868;2023-04-06T01:12:49;96985.72;;;-1.39;100.00
6829;BME280;17930;48.592;8.868;2023-04-06T01:15:17;96981.81;;;-1.35;100.00
6829;BME280;17930;48.592;8.868;2023-04-06T01:17:44;96984.38;;;-1.35;100.00
6829;BME280;17930;48.592;8.868;2023-04-06T01:20:11;96974.09;;;-1.48;100.00
6829;BME280;17930;48.592;8.868;2023-04-06T01:22:39;96971.22;;;-1.19;100.00
6829;BME280;17930;48.592;8.868;2023-04-06T01:25:07;96971.59;;;-1.35;100.00
6829;BME280;17930;48.592;8.868;2023-04-06T01:27:33;96975.84;;;-1.55;100.00
6829;BME280;17930;48.592;8.868;2023-04-06T01:30:00;96977.16;;;-1.72;100.00
6829;BME280;17930;48.592;8.868;2023-04-06T01:32:27;96974.88;;;-1.94;100.00
6829;BME280;17930;48.592;8.868;2023-04-06T01:34:53;96972.94;;;-1.86;100.00
6829;BME280;17930;48.592;8.868;2023-04-06T01:37:21;96968.16;;;-2.02;100.00
6829;BME280;17930;48.592;8.868;2023-04-06T01:39:49;96968.34;;;-1.63;100.00
6829;BME280;17930;48.592;8.868;2023-04-06T01:42:15;96975.56;;;-1.73;100.00
6829;BME280;17930;48.592;8.868;2023-04-06T01:44:42;96974.59;;;-1.72;100.00
6829;BME280;17930;48.592;8.868;2023-04-06T01:47:08;96984.38;;;-1.82;100.00
6829;BME280;17930;48.592;8.868;2023-04-06T01:49:35;96970.47;;;-2.06;100.00
6829;BME280;17930;48.592;8.868;2023-04-06T01:52:02;96972.19;;;-1.80;100.00
6829;BME280;17930;48.592;8.868;2023-04-06T01:54:28;96969.47;;;-1.72;100.00
6829;BME280;17930;48.592;8.868;2023-04-06T01:56:56;96954.94;;;-1.71;100.00
6829;BME280;17930;48.592;8.868;2023-04-06T01:59:23;96957.31;;;-2.04;100.00
6829;BME280;17930;48.592;8.868;2023-04-06T02:01:50;96966.38;;;-2.07;100.00
6829;BME280;17930;48.592;8.868;2023-04-06T02:04:16;96955.59;;;-1.97;100.00
6829;BME280;17930;48.592;8.868;2023-04-06T02:06:43;96952.50;;;-1.86;100.00
6829;BME280;17930;48.592;8.868;2023-04-06T02:09:09;96959.41;;;-1.80;100.00
6829;BME280;17930;48.592;8.868;2023-04-06T02:11:36;96957.22;;;-1.89;100.00
6829;BME280;17930;48.592;8.868;2023-04-06T02:14:04;96960.50;;;-2.02;100.00
6829;BME280;17930;48.592;8.868;2023-04-06T02:16:30;96959.03;;;-2.17;100.00
6829;BME280;17930;48.592;8.868;2023-04-06T02:18:57;96951.41;;;-2.10;100.00
6829;BME280;17930;48.592;8.868;2023-04-06T02:21:24;96953.97;;;-2.10;100.00
6829;BME280;17930;48.592;8.868;2023-04-06T02:23:51;96958.44;;;-2.19;100.00
6829;BME280;17930;48.592;8.868;2023-04-06T02:26:17;96953.84;;;-2.30;100.00
6829;BME280;17930;48.592;8.868;2023-04-06T02:28:44;96955.75;;;-2.38;100.00
6829;BME280;17930;48.592;8.868;2023-04-06T02:31:12;96953.59;;;-2.41;100.00
6829;BME280;17930;48.592;8.868;2023-04-06T02:33:40;96943.59;;;-2.36;100.00
6829;BME280;17930;48.592;8.868;2023-04-06T02:36:07;96946.31;;;-2.38;100.00
6829;BME280;17930;48.592;8.868;2023-04-06T02:38:34;96947.84;;;-2.43;100.00
6829;BME280;17930;48.592;8.868;2023-04-06T02:41:00;96943.50;;;-2.49;100.00
6829;BME280;17930;48.592;8.868;2023-04-06T02:43:27;96948.97;;;-2.52;100.00
6829;BME280;17930;48.592;8.868;2023-04-06T02:45:53;96946.63;;;-2.54;100.00
6829;BME280;17930;48.592;8.868;2023-04-06T02:48:22;96940.13;;;-2.56;100.00
6829;BME280;17930;48.592;8.868;2023-04-06T02:50:48;96941.44;;;-2.60;100.00
6829;BME280;17930;48.592;8.868;2023-04-06T02:53:15;96943.03;;;-2.59;100.00
6829;BME280;17930;48.592;8.868;2023-04-06T02:55:42;96947.78;;;-2.56;100.00
6829;BME280;17930;48.592;8.868;2023-04-06T02:58:08;96942.47;;;-2.27;100.00
6829;BME280;17930;48.592;8.868;2023-04-06T03:00:35;96940.22;;;-2.09;100.00
6829;BME280;17930;48.592;8.868;2023-04-06T03:03:02;96944.53;;;-2.10;100.00
6829;BME280;17930;48.592;8.868;2023-04-06T03:05:30;96944.66;;;-1.91;100.00
6829;BME280;17930;48.592;8.868;2023-04-06T03:07:57;96937.44;;;-2.14;100.00
6829;BME280;17930;48.592;8.868;2023-04-06T03:10:23;96942.63;;;-2.35;100.00
6829;BME280;17930;48.592;8.868;2023-04-06T03:12:50;96948.59;;;-2.49;100.00
6829;BME280;17930;48.592;8.868;2023-04-06T03:15:17;96945.38;;;-2.64;100.00
6829;BME280;17930;48.592;8.868;2023-04-06T03:17:43;96944.53;;;-2.71;100.00
6829;BME280;17930;48.592;8.868;2023-04-06T03:20:10;96947.22;;;-2.79;100.00
6829;BME280;17930;48.592;8.868;2023-04-06T03:22:38;96951.09;;;-2.83;100.00
6829;BME280;17930;48.592;8.868;2023-04-06T03:25:05;96948.44;;;-2.96;100.00
6829;BME280;17930;48.592;8.868;2023-04-06T03:27:32;96949.00;;;-3.00;100.00
6829;BME280;17930;48.592;8.868;2023-04-06T03:29:59;96949.53;;;-3.05;100.00
6829;BME280;17930;48.592;8.868;2023-04-06T03:32:25;96950.09;;;-3.09;100.00
6829;BME280;17930;48.592;8.868;2023-04-06T03:34:52;96950.50;;;-3.06;100.00
6829;BME280;17930;48.592;8.868;2023-04-06T03:37:18;96952.03;;;-3.11;100.00
6829;BME280;17930;48.592;8.868;2023-04-06T03:39:47;96958.28;;;-3.13;100.00
6829;BME280;17930;48.592;8.868;2023-04-06T03:42:13;96955.72;;;-2.93;100.00
6829;BME280;17930;48.592;8.868;2023-04-06T03:44:40;96955.13;;;-2.95;100.00
6829;BME280;17930;48.592;8.868;2023-04-06T03:47:07;96952.69;;;-3.03;100.00
6829;BME280;17930;48.592;8.868;2023-04-06T03:49:33;96950.09;;;-3.09;100.00
6829;BME280;17930;48.592;8.868;2023-04-06T03:52:00;96950.84;;;-3.15;100.00
6829;BME280;17930;48.592;8.868;2023-04-06T03:54:27;96956.69;;;-3.14;100.00
6829;BME280;17930;48.592;8.868;2023-04-06T03:56:55;96952.34;;;-3.20;100.00
6829;BME280;17930;48.592;8.868;2023-04-06T03:59:21;96956.22;;;-3.24;100.00
6829;BME280;17930;48.592;8.868;2023-04-06T04:01:48;96958.88;;;-3.11;100.00
6829;BME280;17930;48.592;8.868;2023-04-06T04:04:16;96963.69;;;-3.23;100.00
6829;BME280;17930;48.592;8.868;2023-04-06T04:06:42;96958.50;;;-3.29;100.00
6829;BME280;17930;48.592;8.868;2023-04-06T04:09:09;96957.53;;;-3.28;100.00
6829;BME280;17930;48.592;8.868;2023-04-06T04:11:36;96965.63;;;-3.25;100.00
6829;BME280;17930;48.592;8.868;2023-04-06T04:14:04;96966.41;;;-3.24;100.00
6829;BME280;17930;48.592;8.868;2023-04-06T04:16:31;96966.78;;;-3.27;100.00
6829;BME280;17930;48.592;8.868;2023-04-06T04:18:57;96959.13;;;-3.27;100.00
6829;BME280;17930;48.592;8.868;2023-04-06T04:21:24;96959.63;;;-3.17;100.00
6829;BME280;17930;48.592;8.868;2023-04-06T04:23:52;96964.47;;;-3.22;100.00
6829;BME280;17930;48.592;8.868;2023-04-06T04:26:18;96964.47;;;-3.22;100.00
6829;BME280;17930;48.592;8.868;2023-04-06T04:28:45;96967.38;;;-3.25;100.00
6829;BME280;17930;48.592;8.868;2023-04-06T04:31:13;96963.38;;;-3.34;100.00
6829;BME280;17930;48.592;8.868;2023-04-06T04:33:40;96970.16;;;-3.41;100.00
6829;BME280;17930;48.592;8.868;2023-04-06T04:36:07;96973.44;;;-3.47;100.00
6829;BME280;17930;48.592;8.868;2023-04-06T04:38:34;96972.44;;;-3.46;100.00
6829;BME280;17930;48.592;8.868;2023-04-06T04:41:00;96974.03;;;-3.45;100.00
6829;BME280;17930;48.592;8.868;2023-04-06T04:43:30;96978.03;;;-3.36;100.00
6829;BME280;17930;48.592;8.868;2023-04-06T04:45:57;96983.09;;;-3.22;100.00
6829;BME280;17930;48.592;8.868;2023-04-06T04:48:26;96976.09;;;-3.34;100.00
6829;BME280;17930;48.592;8.868;2023-04-06T04:50:52;96984.00;;;-3.29;100.00
6829;BME280;17930;48.592;8.868;2023-04-06T04:53:20;96979.25;;;-3.32;100.00
6829;BME280;17930;48.592;8.868;2023-04-06T04:55:50;96977.25;;;-3.37;100.00
6829;BME280;17930;48.592;8.868;2023-04-06T04:58:16;96983.53;;;-2.98;100.00
6829;BME280;17930;48.592;8.868;2023-04-06T05:00:48;96972.25;;;-2.61;100.00
6829;BME280;17930;48.592;8.868;2023-04-06T05:03:19;96984.44;;;-2.36;100.00
6829;BME280;17930;48.592;8.868;2023-04-06T05:05:48;96979.22;;;-2.49;100.00
6829;BME280;17930;48.592;8.868;2023-04-06T05:08:15;96984.47;;;-2.30;100.00
6829;BME280;17930;48.592;8.868;2023-04-06T05:10:42;96984.06;;;-2.33;100.00
6829;BME280;17930;48.592;8.868;2023-04-06T05:13:10;96986.78;;;-2.07;100.00
6829;BME280;17930;48.592;8.868;2023-04-06T05:15:36;96992.31;;;-2.31;100.00
6829;BME280;17930;48.592;8.868;2023-04-06T05:18:04;96991.78;;;-2.54;100.00
6829;BME280;17930;48.592;8.868;2023-04-06T05:20:32;96993.09;;;-2.58;100.00
6829;BME280;17930;48.592;8.868;2023-04-06T05:23:00;96994.34;;;-2.20;100.00
6829;BME280;17930;48.592;8.868;2023-04-06T05:25:27;96992.16;;;-2.23;100.00
6829;BME280;17930;48.592;8.868;2023-04-06T05:27:54;96993.09;;;-2.31;100.00
6829;BME280;17930;48.592;8.868;2023-04-06T05:30:21;96987.81;;;-2.29;100.00
6829;BME280;17930;48.592;8.868;2023-04-06T05:32:47;96992.44;;;-2.12;100.00
6829;BME280;17930;48.592;8.868;2023-04-06T05:35:15;96994.75;;;-1.50;100.00
6829;BME280;17930;48.592;8.868;2023-04-06T05:37:42;96989.34;;;-1.08;100.00
6829;BME280;17930;48.592;8.868;2023-04-06T05:40:11;96982.94;;;-0.72;100.00
6829;BME280;17930;48.592;8.868;2023-04-06T05:42:38;96986.28;;;-0.65;100.00
6829;BME280;17930;48.592;8.868;2023-04-06T05:45:05;96986.69;;;-0.55;100.00
6829;BME280;17930;48.592;8.868;2023-04-06T05:47:32;96989.25;;;-0.55;100.00
6829;BME280;17930;48.592;8.868;2023-04-06T05:50:02;96992.94;;;-0.12;100.00
6829;BME280;17930;48.592;8.868;2023-04-06T05:52:29;96982.66;;;0.13;100.00
6829;BME280;17930;48.592;8.868;2023-04-06T05:54:55;96987.63;;;0.58;100.00
6829;BME280;17930;48.592;8.868;2023-04-06T05:57:23;96988.22;;;0.98;100.00
6829;BME280;17930;48.592;8.868;2023-04-06T05:59:50;96994.41;;;1.21;100.00
6829;BME280;17930;48.592;8.868;2023-04-06T06:02:17;96992.06;;;1.68;100.00
6829;BME280;17930;48.592;8.868;2023-04-06T06:04:44;96995.84;;;1.90;100.00
6829;BME280;17930;48.592;8.868;2023-04-06T06:07:11;97000.69;;;1.98;100.00
6829;BME280;17930;48.592;8.868;2023-04-06T06:09:37;96994.44;;;1.69;100.00
6829;BME280;17930;48.592;8.868;2023-04-06T06:12:21;96998.97;;;1.92;100.00
6829;BME280;17930;48.592;8.868;2023-04-06T06:14:49;97004.81;;;1.56;100.00
6829;BME280;17930;48.592;8.868;2023-04-06T06:17:16;97003.28;;;1.25;100.00
6829;BME280;17930;48.592;8.868;2023-04-06T06:19:43;96999.25;;;2.08;100.00
6829;BME280;17930;48.592;8.868;2023-04-06T06:22:09;96996.69;;;2.44;100.00
6829;BME280;17930;48.592;8.868;2023-04-06T06:24:36;97001.13;;;2.84;100.00
6829;BME280;17930;48.592;8.868;2023-04-06T06:27:03;96994.66;;;3.51;100.00
6829;BME280;17930;48.592;8.868;2023-04-06T06:29:32;96999.75;;;3.92;100.00
6829;BME280;17930;48.592;8.868;2023-04-06T06:32:03;97002.84;;;3.59;100.00
6829;BME280;17930;48.592;8.868;2023-04-06T06:34:30;97000.09;;;4.06;100.00
6829;BME280;17930;48.592;8.868;2023-04-06T06:36:57;96998.63;;;4.22;100.00
6829;BME280;17930;48.592;8.868;2023-04-06T06:39:24;96995.75;;;4.69;100.00
6829;BME280;17930;48.592;8.868;2023-04-06T06:41:50;97005.69;;;4.04;100.00
6829;BME280;17930;48.592;8.868;2023-04-06T06:44:17;97005.13;;;4.24;100.00
6829;BME280;17930;48.592;8.868;2023-04-06T06:46:44;97000.69;;;4.59;100.00
6829;BME280;17930;48.592;8.868;2023-04-06T06:49:12;97007.19;;;4.73;100.00
6829;BME280;17930;48.592;8.868;2023-04-06T06:51:39;97005.19;;;5.30;100.00
6829;BME280;17930;48.592;8.868;2023-04-06T06:54:07;97005.41;;;5.73;100.00
6829;BME280;17930;48.592;8.868;2023-04-06T06:56:33;97006.13;;;5.24;100.00
6829;BME280;17930;48.592;8.868;2023-04-06T06:59:01;96995.72;;;5.80;100.00
6829;BME280;17930;48.592;8.868;2023-04-06T07:01:28;97003.47;;;6.12;100.00
6829;BME280;17930;48.592;8.868;2023-04-06T07:03:55;96996.94;;;6.26;100.00
6829;BME280;17930;48.592;8.868;2023-04-06T07:06:23;96996.16;;;6.10;100.00
6829;BME280;17930;48.592;8.868;2023-04-06T07:08:50;97003.94;;;6.26;100.00
6829;BME280;17930;48.592;8.868;2023-04-06T07:11:17;96996.66;;;7.34;100.00
6829;BME280;17930;48.592;8.868;2023-04-06T07:13:44;96995.00;;;7.23;100.00
6829;BME280;17930;48.592;8.868;2023-04-06T07:16:10;97002.13;;;7.12;100.00
6829;BME280;17930;48.592;8.868;2023-04-06T07:18:37;96989.13;;;7.33;100.00
6829;BME280;17930;48.592;8.868;2023-04-06T07:21:04;96989.38;;;7.58;100.00
6829;BME280;17930;48.592;8.868;2023-04-06T07:23:32;96990.50;;;8.39;100.00
6829;BME280;17930;48.592;8.868;2023-04-06T07:25:59;96991.59;;;8.07;100.00
6829;BME280;17930;48.592;8.868;2023-04-06T07:28:25;96992.84;;;8.40;100.00
6829;BME280;17930;48.592;8.868;2023-04-06T07:30:52;96989.75;;;8.94;100.00
6829;BME280;17930;48.592;8.868;2023-04-06T07:33:19;96986.22;;;9.45;100.00
6829;BME280;17930;48.592;8.868;2023-04-06T07:35:46;96987.81;;;9.70;98.82
6829;BME280;17930;48.592;8.868;2023-04-06T07:38:13;96979.75;;;9.87;92.07
6829;BME280;17930;48.592;8.868;2023-04-06T07:40:41;96985.47;;;9.94;91.78
6829;BME280;17930;48.592;8.868;2023-04-06T07:43:08;96985.44;;;10.33;89.90
6829;BME280;17930;48.592;8.868;2023-04-06T07:45:35;96978.94;;;11.09;86.43
6829;BME280;17930;48.592;8.868;2023-04-06T07:48:01;96987.19;;;11.30;86.53
6829;BME280;17930;48.592;8.868;2023-04-06T07:50:28;96975.59;;;11.89;84.98
6829;BME280;17930;48.592;8.868;2023-04-06T07:52:55;96983.66;;;11.55;81.01
6829;BME280;17930;48.592;8.868;2023-04-06T07:55:23;96981.09;;;12.16;81.83
6829;BME280;17930;48.592;8.868;2023-04-06T07:57:51;96989.84;;;11.21;81.18
6829;BME280;17930;48.592;8.868;2023-04-06T08:00:18;96982.22;;;11.72;80.03
6829;BME280;17930;48.592;8.868;2023-04-06T08:02:44;96979.97;;;11.94;78.36
6829;BME280;17930;48.592;8.868;2023-04-06T08:05:11;96968.84;;;12.63;77.74
6829;BME280;17930;48.592;8.868;2023-04-06T08:07:41;96967.69;;;13.16;75.04
6829;BME280;17930;48.592;8.868;2023-04-06T08:10:09;96965.16;;;13.11;74.33
6829;BME280;17930;48.592;8.868;2023-04-06T08:12:36;96966.13;;;13.70;72.43
6829;BME280;17930;48.592;8.868;2023-04-06T08:15:05;96957.22;;;13.71;69.53
6829;BME280;17930;48.592;8.868;2023-04-06T08:17:32;96960.34;;;13.54;68.75
6829;BME280;17930;48.592;8.868;2023-04-06T08:19:59;96954.25;;;14.09;70.57
6829;BME280;17930;48.592;8.868;2023-04-06T08:22:26;96966.16;;;14.33;67.40
6829;BME280;17930;48.592;8.868;2023-04-06T08:24:53;96950.81;;;14.27;68.61
6829;BME280;17930;48.592;8.868;2023-04-06T08:27:19;96954.97;;;14.14;68.92
6829;BME280;17930;48.592;8.868;2023-04-06T08:29:49;96960.22;;;14.28;66.22
6829;BME280;17930;48.592;8.868;2023-04-06T08:32:17;96958.59;;;14.58;64.83
6829;BME280;17930;48.592;8.868;2023-04-06T08:34:43;96957.78;;;14.18;63.89
6829;BME280;17930;48.592;8.868;2023-04-06T08:37:10;96956.03;;;15.07;63.62
6829;BME280;17930;48.592;8.868;2023-04-06T08:39:37;96947.69;;;16.19;62.25
6829;BME280;17930;48.592;8.868;2023-04-06T08:42:04;96939.19;;;16.22;62.29
6829;BME280;17930;48.592;8.868;2023-04-06T08:44:31;96943.19;;;16.19;58.95
6829;BME280;17930;48.592;8.868;2023-04-06T08:46:59;96948.31;;;16.46;57.62
6829;BME280;17930;48.592;8.868;2023-04-06T08:49:27;96942.59;;;16.52;57.22
6829;BME280;17930;48.592;8.868;2023-04-06T08:51:54;96934.69;;;16.91;55.58
6829;BME280;17930;48.592;8.868;2023-04-06T08:54:22;96937.50;;;17.03;55.61
6829;BME280;17930;48.592;8.868;2023-04-06T08:56:50;96942.91;;;16.90;55.24
6829;BME280;17930;48.592;8.868;2023-04-06T08:59:17;96931.06;;;17.93;54.63
6829;BME280;17930;48.592;8.868;2023-04-06T09:01:44;96936.06;;;16.80;52.29
6829;BME280;17930;48.592;8.868;2023-04-06T09:04:22;96929.09;;;16.84;53.17
6829;BME280;17930;48.592;8.868;2023-04-06T09:06:53;96920.22;;;17.69;51.47
6829;BME280;17930;48.592;8.868;2023-04-06T09:09:20;96927.88;;;18.25;51.64
6829;BME280;17930;48.592;8.868;2023-04-06T09:11:48;96932.53;;;19.02;50.65
6829;BME280;17930;48.592;8.868;2023-04-06T09:14:16;96938.34;;;19.24;47.92
6829;BME280;17930;48.592;8.868;2023-04-06T09:16:43;96938.06;;;18.51;46.83
6829;BME280;17930;48.592;8.868;2023-04-06T09:19:11;96922.69;;;17.91;47.57
6829;BME280;17930;48.592;8.868;2023-04-06T09:21:39;96930.13;;;17.89;49.59
6829;BME280;17930;48.592;8.868;2023-04-06T09:24:08;96928.19;;;18.32;48.78
6829;BME280;17930;48.592;8.868;2023-04-06T09:26:44;96930.16;;;19.38;48.14
6829;BME280;17930;48.592;8.868;2023-04-06T09:29:22;96939.91;;;18.59;46.48
6829;BME280;17930;48.592;8.868;2023-04-06T09:31:49;96934.03;;;18.83;46.91
6829;BME280;17930;48.592;8.868;2023-04-06T09:34:21;96942.59;;;18.43;44.11
6829;BME280;17930;48.592;8.868;2023-04-06T09:36:48;96933.50;;;18.15;45.32
6829;BME280;17930;48.592;8.868;2023-04-06T09:39:21;96946.56;;;18.20;43.10
6829;BME280;17930;48.592;8.868;2023-04-06T09:41:50;96948.97;;;19.16;41.42
6829;BME280;17930;48.592;8.868;2023-04-06T09:44:18;96942.53;;;19.86;41.96
6829;BME280;17930;48.592;8.868;2023-04-06T09:46:46;96933.53;;;20.75;41.05
6829;BME280;17930;48.592;8.868;2023-04-06T09:49:14;96943.56;;;21.06;39.11
6829;BME280;17930;48.592;8.868;2023-04-06T09:51:45;96935.88;;;20.33;40.55
6829;BME280;17930;48.592;8.868;2023-04-06T09:54:15;96929.53;;;20.25;40.23
6829;BME280;17930;48.592;8.868;2023-04-06T09:56:50;96933.91;;;20.42;38.69
6829;BME280;17930;48.592;8.868;2023-04-06T09:59:21;96933.22;;;19.80;39.01
6829;BME280;17930;48.592;8.868;2023-04-06T10:01:51;96927.94;;;20.56;38.22
6829;BME280;17930;48.592;8.868;2023-04-06T10:04:29;96936.19;;;21.89;36.95
6829;BME280;17930;48.592;8.868;2023-04-06T10:06:59;96941.69;;;21.18;36.22
6829;BME280;17930;48.592;8.868;2023-04-06T10:09:28;96942.53;;;21.46;34.74
6829;BME280;17930;48.592;8.868;2023-04-06T10:12:03;96934.41;;;20.35;35.79
6829;BME280;17930;48.592;8.868;2023-04-06T10:14:31;96939.97;;;19.17;36.53
6829;BME280;17930;48.592;8.868;2023-04-06T10:17:02;96932.47;;;19.19;37.04
6829;BME280;17930;48.592;8.868;2023-04-06T10:19:35;96923.94;;;19.74;37.38
6829;BME280;17930;48.592;8.868;2023-04-06T10:22:08;96928.44;;;18.84;36.96
6829;BME280;17930;48.592;8.868;2023-04-06T10:24:36;96933.66;;;19.30;37.53
6829;BME280;17930;48.592;8.868;2023-04-06T10:27:10;96918.28;;;20.72;36.76
6829;BME280;17930;48.592;8.868;2023-04-06T10:29:47;96918.09;;;21.79;36.32
6829;BME280;17930;48.592;8.868;2023-04-06T10:32:14;96932.47;;;20.44;35.12
6829;BME280;17930;48.592;8.868;2023-04-06T10:34:41;96930.13;;;19.78;36.02
6829;BME280;17930;48.592;8.868;2023-04-06T10:37:12;96918.72;;;20.74;35.95
6829;BME280;17930;48.592;8.868;2023-04-06T10:39:52;96922.41;;;21.33;35.66
6829;BME280;17930;48.592;8.868;2023-04-06T10:42:25;96906.94;;;20.63;37.77
6829;BME280;17930;48.592;8.868;2023-04-06T10:44:51;96921.66;;;21.08;35.51
6829;BME280;17930;48.592;8.868;2023-04-06T10:47:18;96919.06;;;19.24;37.26
6829;BME280;17930;48.592;8.868;2023-04-06T10:49:45;96908.25;;;18.43;37.50
6829;BME280;17930;48.592;8.868;2023-04-06T10:52:11;96902.47;;;17.87;38.38
6829;BME280;17930;48.592;8.868;2023-04-06T10:54:41;96909.66;;;18.40;37.27
6829;BME280;17930;48.592;8.868;2023-04-06T10:57:09;96919.47;;;18.40;35.58
6829;BME280;17930;48.592;8.868;2023-04-06T10:59:42;96933.09;;;19.97;33.19
6829;BME280;17930;48.592;8.868;2023-04-06T11:02:08;96932.69;;;20.07;32.35
6829;BME280;17930;48.592;8.868;2023-04-06T11:04:35;96934.56;;;18.39;34.59
6829;BME280;17930;48.592;8.868;2023-04-06T11:07:02;96910.53;;;17.98;35.89
6829;BME280;17930;48.592;8.868;2023-04-06T11:09:29;96920.41;;;19.91;34.48
6829;BME280;17930;48.592;8.868;2023-04-06T11:11:57;96911.56;;;20.31;34.63
6829;BME280;17930;48.592;8.868;2023-04-06T11:14:24;96916.69;;;18.73;34.88
6829;BME280;17930;48.592;8.868;2023-04-06T11:16:53;96904.44;;;19.99;34.88
6829;BME280;17930;48.592;8.868;2023-04-06T11:19:20;96907.44;;;20.89;34.04
6829;BME280;17930;48.592;8.868;2023-04-06T11:21:48;96905.72;;;22.57;33.61
6829;BME280;17930;48.592;8.868;2023-04-06T11:24:17;96920.84;;;23.33;31.49
6829;BME280;17930;48.592;8.868;2023-04-06T11:26:48;96917.47;;;22.56;31.90
6829;BME280;17930;48.592;8.868;2023-04-06T11:29:17;96893.63;;;22.74;32.97
6829;BME280;17930;48.592;8.868;2023-04-06T11:31:46;96899.72;;;22.60;32.35
6829;BME280;17930;48.592;8.868;2023-04-06T11:34:16;96895.63;;;22.04;32.55
6829;BME280;17930;48.592;8.868;2023-04-06T11:36:45;96897.16;;;22.32;33.15
6829;BME280;17930;48.592;8.868;2023-04-06T11:39:12;96889.72;;;21.83;32.59
6829;BME280;17930;48.592;8.868;2023-04-06T11:41:39;96900.94;;;22.04;31.47
6829;BME280;17930;48.592;8.868;2023-04-06T11:44:06;96893.66;;;22.01;31.73
6829;BME280;17930;48.592;8.868;2023-04-06T11:46:33;96887.22;;;22.45;31.88
6829;BME280;17930;48.592;8.868;2023-04-06T11:49:00;96900.00;;;22.55;29.97
6829;BME280;17930;48.592;8.868;2023-04-06T11:51:28;96891.81;;;22.78;29.66
6829;BME280;17930;48.592;8.868;2023-04-06T11:53:55;96912.47;;;21.96;27.70
6829;BME280;17930;48.592;8.868;2023-04-06T11:56:23;96902.72;;;21.34;29.00
6829;BME280;17930;48.592;8.868;2023-04-06T11:58:50;96902.91;;;22.96;28.28
6829;BME280;17930;48.592;8.868;2023-04-06T12:01:17;96884.25;;;23.83;28.89
6829;BME280;17930;48.592;8.868;2023-04-06T12:03:44;96881.56;;;23.11;29.15
6829;BME280;17930;48.592;8.868;2023-04-06T12:06:11;96885.97;;;23.38;29.14
6829;BME280;17930;48.592;8.868;2023-04-06T12:08:39;96878.66;;;23.91;29.33
6829;BME280;17930;48.592;8.868;2023-04-06T12:11:05;96858.19;;;23.58;31.39
6829;BME280;17930;48.592;8.868;2023-04-06T12:13:32;96871.16;;;23.40;30.20
6829;BME280;17930;48.592;8.868;2023-04-06T12:15:59;96866.97;;;23.77;30.08
6829;BME280;17930;48.592;8.868;2023-04-06T12:18:25;96865.28;;;22.97;30.66
6829;BME280;17930;48.592;8.868;2023-04-06T12:20:52;96851.78;;;23.77;30.48
6829;BME280;17930;48.592;8.868;2023-04-06T12:23:19;96859.97;;;22.97;30.06
6829;BME280;17930;48.592;8.868;2023-04-06T12:25:47;96847.44;;;22.21;30.92
6829;BME280;17930;48.592;8.868;2023-04-06T12:28:14;96844.66;;;22.94;31.13
6829;BME280;17930;48.592;8.868;2023-04-06T12:30:41;96846.00;;;22.39;30.86
6829;BME280;17930;48.592;8.868;2023-04-06T12:33:07;96824.81;;;22.58;32.01
6829;BME280;17930;48.592;8.868;2023-04-06T12:35:34;96838.69;;;22.66;30.88
6829;BME280;17930;48.592;8.868;2023-04-06T12:38:01;96836.00;;;23.91;29.63
6829;BME280;17930;48.592;8.868;2023-04-06T12:40:28;96851.03;;;23.43;30.27
6829;BME280;17930;48.592;8.868;2023-04-06T12:42:56;96841.13;;;22.41;30.12
6829;BME280;17930;48.592;8.868;2023-04-06T12:45:23;96843.41;;;22.73;30.22
6829;BME280;17930;48.592;8.868;2023-04-06T12:47:50;96835.94;;;22.78;30.26
6829;BME280;17930;48.592;8.868;2023-04-06T12:50:17;96820.53;;;21.37;32.14
6829;BME280;17930;48.592;8.868;2023-04-06T12:52:43;96816.13;;;22.14;32.23
6829;BME280;17930;48.592;8.868;2023-04-06T12:55:10;96825.59;;;21.42;31.72
6829;BME280;17930;48.592;8.868;2023-04-06T12:57:37;96819.91;;;20.77;32.12
6829;BME280;17930;48.592;8.868;2023-04-06T13:00:06;96826.19;;;20.13;32.17
6829;BME280;17930;48.592;8.868;2023-04-06T13:02:34;96823.22;;;20.51;32.06
6829;BME280;17930;48.592;8.868;2023-04-06T13:05:00;96814.59;;;20.65;32.52
6829;BME280;17930;48.592;8.868;2023-04-06T13:07:27;96812.19;;;20.72;33.10
6829;BME280;17930;48.592;8.868;2023-04-06T13:09:54;96805.94;;;19.53;33.73